Williams, OR (97544)

4:09 PM PDT on September 30, 2014 (GMT -0700)
Bonlinda Lane | Change Station
CLOSE
Current Station
Personal Weather Station
Location: Williams, OR
Elevation: 1542 ft
Nearby Weather Stations

Elev 1542 ft 42.20 °N, 123.30 °W | Updated 13 minutes ago

Partly Cloudy
Partly Cloudy
65.6 °F
Feels Like 65.6 °F
N
0.0
Wind Variable Wind from West
Gusts 1.0 mph

Today
High -- | Low -- °F
--% Chance of Precip.
Yesterday
High -- | Low -- °F
Precip. -- in
7:09 AM 6:56 PM
Waxing Crescent, 41% visible
Pressure 30.09 in
Visibility 10.0 miles
Clouds Scattered Clouds 6500 ft
Dew Point 44 °F
Humidity 45%
Rainfall 0.00 in
Snow Depth 0 in , 0 in , 0 in
UV 3 out of 12
Pollen 3.40 out of 12
Air Quality Not available.
Flu Activity Not available.
METAR KMFR 302253Z 31008KT 10SM SCT065 21/05 A3010 RMK AO2 SLP189 T02060050

More Conditions Fewer Conditions

Pressure 30.09 in
Visibility 10.0 miles
Clouds Scattered Clouds 6500 ft
Dew Point 44 °F
Humidity 45%
Rainfall 0.00 in
Snow Depth 0 in , 0 in , 0 in
UV 3 out of 12
Pollen 3.40 out of 12
Air Quality Not available.
Flu Activity Not available.
METAR KMFR 302253Z 31008KT 10SM SCT065 21/05 A3010 RMK AO2 SLP189 T02060050

More Conditions Fewer Conditions

10-Day Weather Forecast

Almanac

Astronomy

Sep. 30, 2014 Rise Set
Actual Time 7:09 AM PDT 6:56 PM PDT
Civil Twilight 6:41 AM PDT 7:24 PM PDT
Nautical Twilight 6:08 AM PDT 7:56 PM PDT
Astronomical Twilight 5:35 AM PDT 8:29 PM PDT
Moon 1:27 PM PDT 11:27 PM PDT
Length of Visible Light 12h 42m
Length of Day
11h 47m
Tomorrow will be 2m 49s shorter.
Waxing Crescent, 41% of the Moon is Illuminated
Today
Waxing Crescent
Oct 1
First Quarter
Oct 8
Full
Oct 15
Last Quarter
Oct 23
New

Today's Extremes

State Highs State Lows

Community

WunderPhotos

Upload Photos

1,757,768 photos uploaded!

Nearby

Snow Depth

Station Depth Elevation
Sevenmile Marsh 0 in 6200 ft
Tipton 0 in 5150 ft
Seine Creek 0 in 2000 ft
Mckenzie 0 in 4800 ft
Bigelow Camp 0 in 5120 ft

Earthquake Activity

City Distance Mag. Time & Date
No recent earthquake activity has been reported nearby.
Minimum magnitude displayed is 2.5.

Coastal Water Temperatures

Place Temperature
No Stations Reporting

Nearby Weather Stations